sensor_id;sensor_type;location;lat;lon;timestamp;P1;durP1;ratioP1;P2;durP2;ratioP2
48550;SDS011;34397;51.176;6.738;2023-04-28T00:02:26;5.72;;;3.78;;
48550;SDS011;34397;51.176;6.738;2023-04-28T00:04:59;6.45;;;3.53;;
48550;SDS011;34397;51.176;6.738;2023-04-28T00:07:31;4.43;;;3.20;;
48550;SDS011;34397;51.176;6.738;2023-04-28T00:10:03;4.65;;;3.28;;
48550;SDS011;34397;51.176;6.738;2023-04-28T00:12:36;9.20;;;3.60;;
48550;SDS011;34397;51.176;6.738;2023-04-28T00:15:08;6.18;;;3.85;;
48550;SDS011;34397;51.176;6.738;2023-04-28T00:17:42;6.68;;;3.50;;
48550;SDS011;34397;51.176;6.738;2023-04-28T00:20:15;5.70;;;3.38;;
48550;SDS011;34397;51.176;6.738;2023-04-28T00:22:47;5.95;;;3.35;;
48550;SDS011;34397;51.176;6.738;2023-04-28T00:25:19;4.55;;;3.13;;
48550;SDS011;34397;51.176;6.738;2023-04-28T00:27:51;8.45;;;3.30;;
48550;SDS011;34397;51.176;6.738;2023-04-28T00:30:23;5.35;;;3.38;;
48550;SDS011;34397;51.176;6.738;2023-04-28T00:32:55;4.65;;;3.08;;
48550;SDS011;34397;51.176;6.738;2023-04-28T00:35:28;5.82;;;3.55;;
48550;SDS011;34397;51.176;6.738;2023-04-28T00:38:00;7.32;;;3.28;;
48550;SDS011;34397;51.176;6.738;2023-04-28T00:40:32;4.68;;;3.13;;
48550;SDS011;34397;51.176;6.738;2023-04-28T00:43:04;4.45;;;2.90;;
48550;SDS011;34397;51.176;6.738;2023-04-28T00:45:36;6.13;;;3.50;;
48550;SDS011;34397;51.176;6.738;2023-04-28T00:48:08;5.38;;;3.35;;
48550;SDS011;34397;51.176;6.738;2023-04-28T00:53:14;5.07;;;3.10;;
48550;SDS011;34397;51.176;6.738;2023-04-28T00:55:46;5.78;;;3.70;;
48550;SDS011;34397;51.176;6.738;2023-04-28T00:58:19;4.97;;;3.40;;
48550;SDS011;34397;51.176;6.738;2023-04-28T01:00:51;5.57;;;3.30;;
48550;SDS011;34397;51.176;6.738;2023-04-28T01:03:23;6.05;;;3.50;;
48550;SDS011;34397;51.176;6.738;2023-04-28T01:05:56;5.25;;;3.47;;
48550;SDS011;34397;51.176;6.738;2023-04-28T01:08:29;7.72;;;3.20;;
48550;SDS011;34397;51.176;6.738;2023-04-28T01:11:01;7.55;;;3.20;;
48550;SDS011;34397;51.176;6.738;2023-04-28T01:13:33;6.07;;;3.15;;
48550;SDS011;34397;51.176;6.738;2023-04-28T01:16:05;4.43;;;3.20;;
48550;SDS011;34397;51.176;6.738;2023-04-28T01:18:37;8.23;;;3.28;;
48550;SDS011;34397;51.176;6.738;2023-04-28T01:21:14;6.35;;;3.45;;
48550;SDS011;34397;51.176;6.738;2023-04-28T01:23:59;6.03;;;3.40;;
48550;SDS011;34397;51.176;6.738;2023-04-28T01:26:31;5.28;;;3.58;;
48550;SDS011;34397;51.176;6.738;2023-04-28T01:29:03;6.05;;;3.45;;
48550;SDS011;34397;51.176;6.738;2023-04-28T01:31:35;6.40;;;3.47;;
48550;SDS011;34397;51.176;6.738;2023-04-28T01:34:07;7.53;;;3.72;;
48550;SDS011;34397;51.176;6.738;2023-04-28T01:36:39;5.90;;;3.63;;
48550;SDS011;34397;51.176;6.738;2023-04-28T01:39:12;5.05;;;3.20;;
48550;SDS011;34397;51.176;6.738;2023-04-28T01:41:44;6.25;;;3.88;;
48550;SDS011;34397;51.176;6.738;2023-04-28T01:44:16;5.80;;;3.63;;
48550;SDS011;34397;51.176;6.738;2023-04-28T01:46:47;5.78;;;3.67;;
48550;SDS011;34397;51.176;6.738;2023-04-28T01:49:19;4.57;;;3.22;;
48550;SDS011;34397;51.176;6.738;2023-04-28T01:51:51;4.13;;;3.28;;
48550;SDS011;34397;51.176;6.738;2023-04-28T01:54:24;6.15;;;3.40;;
48550;SDS011;34397;51.176;6.738;2023-04-28T01:56:56;6.13;;;3.40;;
48550;SDS011;34397;51.176;6.738;2023-04-28T01:59:28;4.78;;;3.30;;
48550;SDS011;34397;51.176;6.738;2023-04-28T02:02:00;7.43;;;3.53;;
48550;SDS011;34397;51.176;6.738;2023-04-28T02:04:31;5.85;;;3.35;;
48550;SDS011;34397;51.176;6.738;2023-04-28T02:07:03;7.57;;;4.55;;
48550;SDS011;34397;51.176;6.738;2023-04-28T02:12:09;7.82;;;3.60;;
48550;SDS011;34397;51.176;6.738;2023-04-28T02:14:40;6.65;;;3.67;;
48550;SDS011;34397;51.176;6.738;2023-04-28T02:17:12;6.03;;;3.33;;
48550;SDS011;34397;51.176;6.738;2023-04-28T02:19:44;7.32;;;3.78;;
48550;SDS011;34397;51.176;6.738;2023-04-28T02:22:16;6.97;;;3.70;;
48550;SDS011;34397;51.176;6.738;2023-04-28T02:24:49;5.28;;;3.38;;
48550;SDS011;34397;51.176;6.738;2023-04-28T02:27:21;5.88;;;3.40;;
48550;SDS011;34397;51.176;6.738;2023-04-28T02:29:53;4.80;;;3.45;;
48550;SDS011;34397;51.176;6.738;2023-04-28T02:32:24;6.78;;;3.25;;
48550;SDS011;34397;51.176;6.738;2023-04-28T02:34:56;6.70;;;3.80;;
48550;SDS011;34397;51.176;6.738;2023-04-28T02:37:28;5.30;;;3.13;;
48550;SDS011;34397;51.176;6.738;2023-04-28T02:40:01;9.35;;;3.30;;
48550;SDS011;34397;51.176;6.738;2023-04-28T02:42:34;4.75;;;3.17;;
48550;SDS011;34397;51.176;6.738;2023-04-28T02:45:06;5.47;;;3.40;;
48550;SDS011;34397;51.176;6.738;2023-04-28T02:47:38;5.13;;;3.15;;
48550;SDS011;34397;51.176;6.738;2023-04-28T02:50:10;6.28;;;3.47;;
48550;SDS011;34397;51.176;6.738;2023-04-28T02:52:42;5.25;;;3.28;;
48550;SDS011;34397;51.176;6.738;2023-04-28T02:55:15;4.15;;;3.35;;
48550;SDS011;34397;51.176;6.738;2023-04-28T02:57:53;7.05;;;3.55;;
48550;SDS011;34397;51.176;6.738;2023-04-28T03:00:24;6.97;;;3.38;;
48550;SDS011;34397;51.176;6.738;2023-04-28T03:02:56;5.72;;;3.17;;
48550;SDS011;34397;51.176;6.738;2023-04-28T03:05:28;6.50;;;3.42;;
48550;SDS011;34397;51.176;6.738;2023-04-28T03:08:00;5.00;;;3.50;;
48550;SDS011;34397;51.176;6.738;2023-04-28T03:10:33;5.03;;;3.25;;
48550;SDS011;34397;51.176;6.738;2023-04-28T03:13:05;7.70;;;3.47;;
48550;SDS011;34397;51.176;6.738;2023-04-28T03:15:37;6.18;;;3.92;;
48550;SDS011;34397;51.176;6.738;2023-04-28T03:18:09;6.95;;;3.22;;
48550;SDS011;34397;51.176;6.738;2023-04-28T03:20:41;5.88;;;3.22;;
48550;SDS011;34397;51.176;6.738;2023-04-28T03:23:13;3.63;;;2.95;;
48550;SDS011;34397;51.176;6.738;2023-04-28T03:25:46;4.07;;;3.17;;
48550;SDS011;34397;51.176;6.738;2023-04-28T03:28:18;7.43;;;3.03;;
48550;SDS011;34397;51.176;6.738;2023-04-28T03:30:50;8.63;;;3.17;;
48550;SDS011;34397;51.176;6.738;2023-04-28T03:33:22;4.40;;;3.28;;
48550;SDS011;34397;51.176;6.738;2023-04-28T03:35:54;3.50;;;2.97;;
48550;SDS011;34397;51.176;6.738;2023-04-28T03:38:26;4.65;;;3.13;;
48550;SDS011;34397;51.176;6.738;2023-04-28T03:40:59;7.03;;;3.15;;
48550;SDS011;34397;51.176;6.738;2023-04-28T03:43:31;4.38;;;2.92;;
48550;SDS011;34397;51.176;6.738;2023-04-28T03:46:04;8.82;;;3.35;;
48550;SDS011;34397;51.176;6.738;2023-04-28T03:48:36;5.95;;;3.38;;
48550;SDS011;34397;51.176;6.738;2023-04-28T03:51:08;5.60;;;2.92;;
48550;SDS011;34397;51.176;6.738;2023-04-28T03:53:40;6.95;;;3.55;;
48550;SDS011;34397;51.176;6.738;2023-04-28T03:56:13;5.45;;;3.10;;
48550;SDS011;34397;51.176;6.738;2023-04-28T03:58:45;5.78;;;3.55;;
48550;SDS011;34397;51.176;6.738;2023-04-28T04:01:17;6.53;;;3.50;;
48550;SDS011;34397;51.176;6.738;2023-04-28T04:03:49;6.13;;;3.53;;
48550;SDS011;34397;51.176;6.738;2023-04-28T04:06:21;6.70;;;3.33;;
48550;SDS011;34397;51.176;6.738;2023-04-28T04:08:53;5.60;;;3.47;;
48550;SDS011;34397;51.176;6.738;2023-04-28T04:11:26;7.40;;;3.67;;
48550;SDS011;34397;51.176;6.738;2023-04-28T04:13:58;4.38;;;2.80;;
48550;SDS011;34397;51.176;6.738;2023-04-28T04:16:30;5.25;;;3.63;;
48550;SDS011;34397;51.176;6.738;2023-04-28T04:19:02;5.43;;;3.33;;
48550;SDS011;34397;51.176;6.738;2023-04-28T04:21:34;6.15;;;3.40;;
48550;SDS011;34397;51.176;6.738;2023-04-28T04:24:06;5.32;;;3.40;;
48550;SDS011;34397;51.176;6.738;2023-04-28T04:26:39;4.88;;;3.15;;
48550;SDS011;34397;51.176;6.738;2023-04-28T04:29:11;5.88;;;3.15;;
48550;SDS011;34397;51.176;6.738;2023-04-28T04:31:43;6.90;;;3.83;;
48550;SDS011;34397;51.176;6.738;2023-04-28T04:34:15;6.60;;;3.63;;
48550;SDS011;34397;51.176;6.738;2023-04-28T04:36:47;6.60;;;3.35;;
48550;SDS011;34397;51.176;6.738;2023-04-28T04:39:18;7.18;;;3.80;;
48550;SDS011;34397;51.176;6.738;2023-04-28T04:41:52;7.65;;;3.92;;
48550;SDS011;34397;51.176;6.738;2023-04-28T04:44:23;6.38;;;3.80;;
48550;SDS011;34397;51.176;6.738;2023-04-28T04:46:55;4.95;;;3.67;;
48550;SDS011;34397;51.176;6.738;2023-04-28T04:49:27;7.00;;;3.63;;
48550;SDS011;34397;51.176;6.738;2023-04-28T04:51:59;9.50;;;3.60;;
48550;SDS011;34397;51.176;6.738;2023-04-28T04:54:31;5.63;;;3.65;;
48550;SDS011;34397;51.176;6.738;2023-04-28T04:57:05;5.38;;;3.40;;
48550;SDS011;34397;51.176;6.738;2023-04-28T04:59:37;7.97;;;3.70;;
48550;SDS011;34397;51.176;6.738;2023-04-28T05:02:08;5.63;;;3.55;;
48550;SDS011;34397;51.176;6.738;2023-04-28T05:04:40;4.68;;;3.50;;
48550;SDS011;34397;51.176;6.738;2023-04-28T05:07:12;6.05;;;3.75;;
48550;SDS011;34397;51.176;6.738;2023-04-28T05:09:44;4.68;;;3.53;;
48550;SDS011;34397;51.176;6.738;2023-04-28T05:12:17;6.00;;;3.60;;
48550;SDS011;34397;51.176;6.738;2023-04-28T05:14:49;6.47;;;3.78;;
48550;SDS011;34397;51.176;6.738;2023-04-28T05:17:21;5.55;;;3.60;;
48550;SDS011;34397;51.176;6.738;2023-04-28T05:19:52;8.95;;;4.03;;
48550;SDS011;34397;51.176;6.738;2023-04-28T05:22:24;6.00;;;3.47;;
48550;SDS011;34397;51.176;6.738;2023-04-28T05:24:56;8.20;;;3.78;;
48550;SDS011;34397;51.176;6.738;2023-04-28T05:27:29;7.43;;;3.78;;
48550;SDS011;34397;51.176;6.738;2023-04-28T05:30:01;4.50;;;3.25;;
48550;SDS011;34397;51.176;6.738;2023-04-28T05:37:39;5.45;;;3.42;;
48550;SDS011;34397;51.176;6.738;2023-04-28T05:40:12;5.75;;;3.55;;
48550;SDS011;34397;51.176;6.738;2023-04-28T05:42:45;4.43;;;3.63;;
48550;SDS011;34397;51.176;6.738;2023-04-28T05:45:17;5.82;;;3.45;;
48550;SDS011;34397;51.176;6.738;2023-04-28T05:47:49;5.35;;;3.55;;
48550;SDS011;34397;51.176;6.738;2023-04-28T05:50:21;4.18;;;3.55;;
48550;SDS011;34397;51.176;6.738;2023-04-28T05:52:53;8.77;;;3.78;;
48550;SDS011;34397;51.176;6.738;2023-04-28T05:55:25;6.00;;;3.78;;
48550;SDS011;34397;51.176;6.738;2023-04-28T05:57:58;6.93;;;3.80;;
48550;SDS011;34397;51.176;6.738;2023-04-28T06:00:31;5.65;;;3.80;;
48550;SDS011;34397;51.176;6.738;2023-04-28T06:03:03;5.43;;;3.92;;
48550;SDS011;34397;51.176;6.738;2023-04-28T06:05:35;5.25;;;4.00;;
48550;SDS011;34397;51.176;6.738;2023-04-28T06:08:07;5.90;;;3.60;;
48550;SDS011;34397;51.176;6.738;2023-04-28T06:10:39;5.90;;;3.58;;
48550;SDS011;34397;51.176;6.738;2023-04-28T06:13:12;6.65;;;3.50;;
48550;SDS011;34397;51.176;6.738;2023-04-28T06:15:44;6.38;;;3.58;;
48550;SDS011;34397;51.176;6.738;2023-04-28T06:18:16;5.43;;;3.65;;
48550;SDS011;34397;51.176;6.738;2023-04-28T06:20:48;4.32;;;3.63;;
48550;SDS011;34397;51.176;6.738;2023-04-28T06:23:20;8.18;;;4.40;;
48550;SDS011;34397;51.176;6.738;2023-04-28T06:25:52;8.25;;;4.43;;
48550;SDS011;34397;51.176;6.738;2023-04-28T06:28:25;8.07;;;4.03;;
48550;SDS011;34397;51.176;6.738;2023-04-28T06:30:57;6.75;;;3.88;;
48550;SDS011;34397;51.176;6.738;2023-04-28T06:33:29;8.88;;;3.95;;
48550;SDS011;34397;51.176;6.738;2023-04-28T06:36:00;5.47;;;3.97;;
48550;SDS011;34397;51.176;6.738;2023-04-28T06:38:33;7.57;;;3.80;;
48550;SDS011;34397;51.176;6.738;2023-04-28T06:41:06;4.53;;;3.17;;
48550;SDS011;34397;51.176;6.738;2023-04-28T06:43:39;7.78;;;4.25;;
48550;SDS011;34397;51.176;6.738;2023-04-28T06:46:11;5.30;;;3.70;;
48550;SDS011;34397;51.176;6.738;2023-04-28T06:48:43;7.45;;;3.47;;
48550;SDS011;34397;51.176;6.738;2023-04-28T06:51:15;6.88;;;4.22;;
48550;SDS011;34397;51.176;6.738;2023-04-28T06:53:46;5.75;;;3.67;;
48550;SDS011;34397;51.176;6.738;2023-04-28T06:56:20;6.07;;;3.70;;
48550;SDS011;34397;51.176;6.738;2023-04-28T06:58:54;4.57;;;3.65;;
48550;SDS011;34397;51.176;6.738;2023-04-28T07:01:27;5.70;;;3.95;;
48550;SDS011;34397;51.176;6.738;2023-04-28T07:03:59;7.05;;;3.33;;
48550;SDS011;34397;51.176;6.738;2023-04-28T07:06:31;7.68;;;4.38;;
48550;SDS011;34397;51.176;6.738;2023-04-28T07:09:03;6.15;;;4.28;;
48550;SDS011;34397;51.176;6.738;2023-04-28T07:11:35;5.22;;;3.92;;
48550;SDS011;34397;51.176;6.738;2023-04-28T07:14:08;6.13;;;3.80;;
48550;SDS011;34397;51.176;6.738;2023-04-28T07:16:40;6.72;;;3.60;;
48550;SDS011;34397;51.176;6.738;2023-04-28T07:19:11;6.20;;;3.53;;
48550;SDS011;34397;51.176;6.738;2023-04-28T07:21:43;5.50;;;3.05;;
48550;SDS011;34397;51.176;6.738;2023-04-28T07:24:15;4.22;;;3.20;;
48550;SDS011;34397;51.176;6.738;2023-04-28T07:26:47;6.32;;;3.75;;
48550;SDS011;34397;51.176;6.738;2023-04-28T07:29:20;6.18;;;4.25;;
48550;SDS011;34397;51.176;6.738;2023-04-28T07:31:52;4.80;;;3.53;;
48550;SDS011;34397;51.176;6.738;2023-04-28T07:34:24;5.45;;;3.80;;
48550;SDS011;34397;51.176;6.738;2023-04-28T07:36:56;6.30;;;3.90;;
48550;SDS011;34397;51.176;6.738;2023-04-28T07:39:29;5.78;;;3.67;;
48550;SDS011;34397;51.176;6.738;2023-04-28T07:42:02;5.85;;;3.60;;
48550;SDS011;34397;51.176;6.738;2023-04-28T07:44:36;4.78;;;3.35;;
48550;SDS011;34397;51.176;6.738;2023-04-28T07:47:07;6.07;;;3.72;;
48550;SDS011;34397;51.176;6.738;2023-04-28T07:49:39;7.40;;;3.63;;
48550;SDS011;34397;51.176;6.738;2023-04-28T07:52:11;8.32;;;3.58;;
48550;SDS011;34397;51.176;6.738;2023-04-28T07:54:43;4.95;;;3.83;;
48550;SDS011;34397;51.176;6.738;2023-04-28T07:59:48;4.90;;;3.20;;
48550;SDS011;34397;51.176;6.738;2023-04-28T08:02:20;4.93;;;3.38;;
48550;SDS011;34397;51.176;6.738;2023-04-28T08:04:52;6.22;;;3.72;;
48550;SDS011;34397;51.176;6.738;2023-04-28T08:07:24;6.72;;;3.78;;
48550;SDS011;34397;51.176;6.738;2023-04-28T08:09:56;7.07;;;4.38;;
48550;SDS011;34397;51.176;6.738;2023-04-28T08:12:28;6.43;;;3.90;;
48550;SDS011;34397;51.176;6.738;2023-04-28T08:15:01;7.22;;;3.70;;
48550;SDS011;34397;51.176;6.738;2023-04-28T08:17:33;5.35;;;3.30;;
48550;SDS011;34397;51.176;6.738;2023-04-28T08:20:06;6.22;;;4.35;;
48550;SDS011;34397;51.176;6.738;2023-04-28T08:22:39;5.82;;;3.80;;
48550;SDS011;34397;51.176;6.738;2023-04-28T08:25:11;8.63;;;4.38;;
48550;SDS011;34397;51.176;6.738;2023-04-28T08:27:43;5.82;;;4.13;;
48550;SDS011;34397;51.176;6.738;2023-04-28T08:30:16;5.75;;;4.72;;
48550;SDS011;34397;51.176;6.738;2023-04-28T08:32:48;5.95;;;4.68;;
48550;SDS011;34397;51.176;6.738;2023-04-28T08:35:20;7.15;;;4.47;;
48550;SDS011;34397;51.176;6.738;2023-04-28T08:37:52;6.88;;;4.28;;
48550;SDS011;34397;51.176;6.738;2023-04-28T08:40:24;5.97;;;4.05;;
48550;SDS011;34397;51.176;6.738;2023-04-28T08:42:58;5.88;;;4.50;;
48550;SDS011;34397;51.176;6.738;2023-04-28T08:45:32;7.82;;;4.85;;
48550;SDS011;34397;51.176;6.738;2023-04-28T08:48:16;7.13;;;4.38;;
48550;SDS011;34397;51.176;6.738;2023-04-28T08:50:51;7.38;;;4.53;;
48550;SDS011;34397;51.176;6.738;2023-04-28T08:53:24;6.20;;;4.50;;
48550;SDS011;34397;51.176;6.738;2023-04-28T08:55:57;5.25;;;4.45;;
48550;SDS011;34397;51.176;6.738;2023-04-28T08:58:30;6.00;;;4.50;;
48550;SDS011;34397;51.176;6.738;2023-04-28T09:01:03;8.07;;;5.03;;
48550;SDS011;34397;51.176;6.738;2023-04-28T09:03:35;5.55;;;4.03;;
48550;SDS011;34397;51.176;6.738;2023-04-28T09:06:07;7.65;;;4.93;;
48550;SDS011;34397;51.176;6.738;2023-04-28T09:08:39;7.43;;;4.53;;
48550;SDS011;34397;51.176;6.738;2023-04-28T09:11:11;5.18;;;4.38;;
48550;SDS011;34397;51.176;6.738;2023-04-28T09:13:43;6.28;;;4.38;;
48550;SDS011;34397;51.176;6.738;2023-04-28T09:16:16;5.45;;;4.38;;
48550;SDS011;34397;51.176;6.738;2023-04-28T09:18:54;6.40;;;4.13;;
48550;SDS011;34397;51.176;6.738;2023-04-28T09:21:27;5.47;;;4.60;;
48550;SDS011;34397;51.176;6.738;2023-04-28T09:23:59;7.70;;;4.32;;
48550;SDS011;34397;51.176;6.738;2023-04-28T09:26:41;7.00;;;4.22;;
48550;SDS011;34397;51.176;6.738;2023-04-28T09:29:19;6.05;;;4.65;;
48550;SDS011;34397;51.176;6.738;2023-04-28T09:31:53;12.18;;;4.60;;
48550;SDS011;34397;51.176;6.738;2023-04-28T09:34:24;5.95;;;4.28;;
48550;SDS011;34397;51.176;6.738;2023-04-28T09:37:14;5.97;;;4.25;;
48550;SDS011;34397;51.176;6.738;2023-04-28T09:39:50;5.88;;;4.70;;
48550;SDS011;34397;51.176;6.738;2023-04-28T09:42:30;7.32;;;5.30;;
48550;SDS011;34397;51.176;6.738;2023-04-28T09:45:04;7.82;;;5.15;;
48550;SDS011;34397;51.176;6.738;2023-04-28T09:47:40;9.05;;;4.82;;
48550;SDS011;34397;51.176;6.738;2023-04-28T09:50:15;6.97;;;5.10;;
48550;SDS011;34397;51.176;6.738;2023-04-28T09:52:54;6.65;;;5.25;;
48550;SDS011;34397;51.176;6.738;2023-04-28T09:55:28;6.35;;;5.05;;
48550;SDS011;34397;51.176;6.738;2023-04-28T09:58:01;8.82;;;5.30;;
48550;SDS011;34397;51.176;6.738;2023-04-28T10:04:24;7.88;;;5.38;;
48550;SDS011;34397;51.176;6.738;2023-04-28T10:07:00;6.28;;;5.60;;
48550;SDS011;34397;51.176;6.738;2023-04-28T10:09:32;9.52;;;5.60;;
48550;SDS011;34397;51.176;6.738;2023-04-28T10:14:37;6.47;;;5.32;;
48550;SDS011;34397;51.176;6.738;2023-04-28T10:17:09;6.65;;;5.60;;
48550;SDS011;34397;51.176;6.738;2023-04-28T10:19:44;7.15;;;5.65;;
48550;SDS011;34397;51.176;6.738;2023-04-28T10:22:21;8.20;;;5.88;;
48550;SDS011;34397;51.176;6.738;2023-04-28T10:25:16;10.55;;;6.00;;
48550;SDS011;34397;51.176;6.738;2023-04-28T10:27:57;6.43;;;5.78;;
48550;SDS011;34397;51.176;6.738;2023-04-28T10:30:30;7.97;;;6.47;;
48550;SDS011;34397;51.176;6.738;2023-04-28T10:33:22;6.90;;;6.20;;
48550;SDS011;34397;51.176;6.738;2023-04-28T10:35:56;7.75;;;6.25;;
48550;SDS011;34397;51.176;6.738;2023-04-28T10:38:28;7.85;;;6.45;;
48550;SDS011;34397;51.176;6.738;2023-04-28T10:41:00;7.80;;;6.70;;
48550;SDS011;34397;51.176;6.738;2023-04-28T10:43:34;7.30;;;6.50;;
48550;SDS011;34397;51.176;6.738;2023-04-28T10:46:08;8.18;;;6.57;;
48550;SDS011;34397;51.176;6.738;2023-04-28T10:48:53;7.78;;;6.90;;
48550;SDS011;34397;51.176;6.738;2023-04-28T10:51:30;7.97;;;6.18;;
48550;SDS011;34397;51.176;6.738;2023-04-28T10:54:06;7.47;;;6.32;;
48550;SDS011;34397;51.176;6.738;2023-04-28T10:56:40;8.55;;;6.32;;
48550;SDS011;34397;51.176;6.738;2023-04-28T10:59:49;8.75;;;7.05;;
48550;SDS011;34397;51.176;6.738;2023-04-28T11:02:34;9.40;;;6.70;;
48550;SDS011;34397;51.176;6.738;2023-04-28T11:05:14;7.55;;;6.10;;
48550;SDS011;34397;51.176;6.738;2023-04-28T11:11:18;6.50;;;5.63;;
48550;SDS011;34397;51.176;6.738;2023-04-28T11:14:29;8.73;;;5.50;;
48550;SDS011;34397;51.176;6.738;2023-04-28T11:17:04;6.00;;;5.00;;
48550;SDS011;34397;51.176;6.738;2023-04-28T11:19:37;6.30;;;5.18;;
48550;SDS011;34397;51.176;6.738;2023-04-28T11:22:15;4.85;;;4.38;;
48550;SDS011;34397;51.176;6.738;2023-04-28T11:24:56;5.40;;;4.90;;
48550;SDS011;34397;51.176;6.738;2023-04-28T11:27:31;6.57;;;5.00;;
48550;SDS011;34397;51.176;6.738;2023-04-28T11:30:18;5.05;;;4.55;;
48550;SDS011;34397;51.176;6.738;2023-04-28T11:32:51;5.03;;;3.85;;
48550;SDS011;34397;51.176;6.738;2023-04-28T11:35:24;4.68;;;4.20;;
48550;SDS011;34397;51.176;6.738;2023-04-28T11:38:11;5.20;;;4.25;;
48550;SDS011;34397;51.176;6.738;2023-04-28T11:43:28;3.42;;;3.13;;
48550;SDS011;34397;51.176;6.738;2023-04-28T11:46:00;4.30;;;3.45;;
48550;SDS011;34397;51.176;6.738;2023-04-28T11:48:32;4.13;;;3.72;;
48550;SDS011;34397;51.176;6.738;2023-04-28T11:53:39;3.47;;;3.17;;
48550;SDS011;34397;51.176;6.738;2023-04-28T11:56:13;3.65;;;2.65;;
48550;SDS011;34397;51.176;6.738;2023-04-28T11:58:45;3.20;;;2.90;;
48550;SDS011;34397;51.176;6.738;2023-04-28T12:01:30;3.38;;;2.78;;
48550;SDS011;34397;51.176;6.738;2023-04-28T12:04:03;3.70;;;2.85;;
48550;SDS011;34397;51.176;6.738;2023-04-28T12:06:35;3.70;;;3.30;;
48550;SDS011;34397;51.176;6.738;2023-04-28T12:09:14;2.78;;;2.58;;
48550;SDS011;34397;51.176;6.738;2023-04-28T12:11:55;3.15;;;2.65;;
48550;SDS011;34397;51.176;6.738;2023-04-28T12:14:28;3.22;;;2.58;;
48550;SDS011;34397;51.176;6.738;2023-04-28T12:17:02;2.25;;;2.05;;
48550;SDS011;34397;51.176;6.738;2023-04-28T12:19:42;4.15;;;2.70;;
48550;SDS011;34397;51.176;6.738;2023-04-28T12:22:25;3.00;;;2.70;;
48550;SDS011;34397;51.176;6.738;2023-04-28T12:25:15;3.05;;;2.47;;
48550;SDS011;34397;51.176;6.738;2023-04-28T12:27:59;2.40;;;2.15;;
48550;SDS011;34397;51.176;6.738;2023-04-28T12:30:33;3.40;;;2.67;;
48550;SDS011;34397;51.176;6.738;2023-04-28T12:33:20;2.92;;;2.42;;
48550;SDS011;34397;51.176;6.738;2023-04-28T12:35:54;4.35;;;2.60;;
48550;SDS011;34397;51.176;6.738;2023-04-28T12:38:27;2.97;;;2.55;;
48550;SDS011;34397;51.176;6.738;2023-04-28T12:41:01;2.53;;;2.10;;
48550;SDS011;34397;51.176;6.738;2023-04-28T12:43:35;2.53;;;1.90;;
48550;SDS011;34397;51.176;6.738;2023-04-28T12:46:09;2.97;;;2.15;;
48550;SDS011;34397;51.176;6.738;2023-04-28T12:48:45;1.98;;;1.80;;
48550;SDS011;34397;51.176;6.738;2023-04-28T12:51:24;2.03;;;1.83;;
48550;SDS011;34397;51.176;6.738;2023-04-28T12:53:58;2.50;;;1.40;;
48550;SDS011;34397;51.176;6.738;2023-04-28T12:56:30;2.42;;;1.83;;
48550;SDS011;34397;51.176;6.738;2023-04-28T12:59:04;1.88;;;1.70;;
48550;SDS011;34397;51.176;6.738;2023-04-28T13:01:36;6.30;;;1.95;;
48550;SDS011;34397;51.176;6.738;2023-04-28T13:06:41;2.22;;;1.55;;
48550;SDS011;34397;51.176;6.738;2023-04-28T13:09:38;1.92;;;1.75;;
48550;SDS011;34397;51.176;6.738;2023-04-28T13:12:23;2.80;;;1.70;;
48550;SDS011;34397;51.176;6.738;2023-04-28T13:15:12;1.90;;;1.70;;
48550;SDS011;34397;51.176;6.738;2023-04-28T13:18:14;3.35;;;2.25;;
48550;SDS011;34397;51.176;6.738;2023-04-28T13:20:46;2.88;;;2.47;;
48550;SDS011;34397;51.176;6.738;2023-04-28T13:23:38;2.33;;;2.13;;
48550;SDS011;34397;51.176;6.738;2023-04-28T13:26:25;2.95;;;2.30;;
48550;SDS011;34397;51.176;6.738;2023-04-28T13:29:04;2.22;;;1.90;;
48550;SDS011;34397;51.176;6.738;2023-04-28T13:31:46;3.08;;;2.45;;
48550;SDS011;34397;51.176;6.738;2023-04-28T13:34:19;5.72;;;3.20;;
48550;SDS011;34397;51.176;6.738;2023-04-28T13:39:24;2.80;;;2.47;;
48550;SDS011;34397;51.176;6.738;2023-04-28T13:41:57;2.30;;;2.10;;
48550;SDS011;34397;51.176;6.738;2023-04-28T13:44:34;3.05;;;2.80;;
48550;SDS011;34397;51.176;6.738;2023-04-28T13:47:08;2.70;;;2.50;;
48550;SDS011;34397;51.176;6.738;2023-04-28T13:49:40;2.88;;;2.42;;
48550;SDS011;34397;51.176;6.738;2023-04-28T13:54:44;2.35;;;2.13;;
48550;SDS011;34397;51.176;6.738;2023-04-28T13:57:16;1.38;;;1.15;;
48550;SDS011;34397;51.176;6.738;2023-04-28T13:59:48;0.73;;;0.70;;
48550;SDS011;34397;51.176;6.738;2023-04-28T14:02:21;2.95;;;1.15;;
48550;SDS011;34397;51.176;6.738;2023-04-28T14:04:53;2.05;;;0.70;;
48550;SDS011;34397;51.176;6.738;2023-04-28T14:09:58;0.60;;;0.50;;
48550;SDS011;34397;51.176;6.738;2023-04-28T14:12:30;0.60;;;0.60;;
48550;SDS011;34397;51.176;6.738;2023-04-28T14:15:03;1.15;;;0.80;;
48550;SDS011;34397;51.176;6.738;2023-04-28T14:17:38;1.35;;;0.90;;
48550;SDS011;34397;51.176;6.738;2023-04-28T14:20:11;1.98;;;1.00;;
48550;SDS011;34397;51.176;6.738;2023-04-28T14:22:43;1.17;;;0.85;;
48550;SDS011;34397;51.176;6.738;2023-04-28T14:25:15;1.25;;;0.80;;
48550;SDS011;34397;51.176;6.738;2023-04-28T14:27:48;1.10;;;0.80;;
48550;SDS011;34397;51.176;6.738;2023-04-28T14:30:20;1.52;;;0.80;;
48550;SDS011;34397;51.176;6.738;2023-04-28T14:32:56;1.40;;;1.17;;
48550;SDS011;34397;51.176;6.738;2023-04-28T14:35:28;0.90;;;0.80;;
48550;SDS011;34397;51.176;6.738;2023-04-28T14:38:01;0.80;;;0.80;;
48550;SDS011;34397;51.176;6.738;2023-04-28T14:40:33;0.82;;;0.77;;
48550;SDS011;34397;51.176;6.738;2023-04-28T14:43:05;0.85;;;0.65;;
48550;SDS011;34397;51.176;6.738;2023-04-28T14:45:38;1.98;;;0.70;;
48550;SDS011;34397;51.176;6.738;2023-04-28T14:50:44;0.47;;;0.47;;
48550;SDS011;34397;51.176;6.738;2023-04-28T14:53:16;1.40;;;0.50;;
48550;SDS011;34397;51.176;6.738;2023-04-28T14:55:48;2.00;;;0.50;;
48550;SDS011;34397;51.176;6.738;2023-04-28T14:58:20;0.63;;;0.40;;
48550;SDS011;34397;51.176;6.738;2023-04-28T15:00:52;0.50;;;0.43;;
48550;SDS011;34397;51.176;6.738;2023-04-28T15:03:26;0.45;;;0.45;;
48550;SDS011;34397;51.176;6.738;2023-04-28T15:05:59;0.40;;;0.40;;
48550;SDS011;34397;51.176;6.738;2023-04-28T15:08:32;3.80;;;0.57;;
48550;SDS011;34397;51.176;6.738;2023-04-28T15:13:36;4.23;;;0.50;;
48550;SDS011;34397;51.176;6.738;2023-04-28T15:16:08;0.85;;;0.70;;
48550;SDS011;34397;51.176;6.738;2023-04-28T15:18:41;0.93;;;0.70;;
48550;SDS011;34397;51.176;6.738;2023-04-28T15:21:13;3.17;;;0.65;;
48550;SDS011;34397;51.176;6.738;2023-04-28T15:23:45;0.50;;;0.50;;
48550;SDS011;34397;51.176;6.738;2023-04-28T15:26:17;1.05;;;0.60;;
48550;SDS011;34397;51.176;6.738;2023-04-28T15:28:49;1.05;;;0.60;;
48550;SDS011;34397;51.176;6.738;2023-04-28T15:31:22;1.23;;;0.60;;
48550;SDS011;34397;51.176;6.738;2023-04-28T15:33:56;1.33;;;0.80;;
48550;SDS011;34397;51.176;6.738;2023-04-28T15:36:28;5.22;;;1.30;;
48550;SDS011;34397;51.176;6.738;2023-04-28T15:39:06;0.73;;;0.73;;
48550;SDS011;34397;51.176;6.738;2023-04-28T15:41:42;0.95;;;0.88;;
48550;SDS011;34397;51.176;6.738;2023-04-28T15:44:27;2.22;;;1.10;;
48550;SDS011;34397;51.176;6.738;2023-04-28T15:47:22;1.45;;;0.80;;
48550;SDS011;34397;51.176;6.738;2023-04-28T15:50:05;1.00;;;0.90;;
48550;SDS011;34397;51.176;6.738;2023-04-28T15:52:58;0.82;;;0.60;;
48550;SDS011;34397;51.176;6.738;2023-04-28T15:55:42;0.98;;;0.75;;
48550;SDS011;34397;51.176;6.738;2023-04-28T15:58:37;0.60;;;0.60;;
48550;SDS011;34397;51.176;6.738;2023-04-28T16:01:11;0.77;;;0.50;;
48550;SDS011;34397;51.176;6.738;2023-04-28T16:03:58;0.65;;;0.50;;
48550;SDS011;34397;51.176;6.738;2023-04-28T16:06:42;0.50;;;0.45;;
48550;SDS011;34397;51.176;6.738;2023-04-28T16:09:19;0.75;;;0.55;;
48550;SDS011;34397;51.176;6.738;2023-04-28T16:12:03;1.00;;;0.75;;
48550;SDS011;34397;51.176;6.738;2023-04-28T16:14:36;1.30;;;1.20;;